East Freetown, Massachusetts
Current Conditions -  °F | °C
As of 11:53 AM on Friday 24 Oct 2014 (Local Time) from KEWB Reporting Station
Overcast Overcast  
Wind Chill: 52°   Ceiling: 1400
Heat Index: 52°   Visibility: 10mi
Dew Point: 48°   Wind: 7mph
Humidity: 86%   Direction: 350°N
Pressure: 29.69"   Gusts: NA
Location:  41.77°N, 70.96°W
Report Text: KEWB 241553Z 35006KT 10SM OVC014 11/09 A2969 RMK AO2 SLP053 T01110089
Loading
Personal Weather Stations






























Interactive Weather Map
Tropical Storm Tracking
New forecast layout! Learn more

10-Day Weather Forecast

Advertisements
Track Severe Weather on mobile